createdAt,value
2024-05-09T00:01:27.392Z,0.88
2024-05-09T00:06:33.159Z,1.60
2024-05-09T00:09:06.173Z,1.02
2024-05-09T00:11:39.106Z,0.95
2024-05-09T00:14:12.156Z,1.55
2024-05-09T00:16:45.137Z,1.35
2024-05-09T00:19:18.076Z,1.30
2024-05-09T00:21:51.010Z,0.95
2024-05-09T00:24:23.890Z,1.20
2024-05-09T00:26:56.743Z,1.42
2024-05-09T00:29:29.576Z,1.30
2024-05-09T00:32:02.631Z,1.20
2024-05-09T00:34:35.508Z,1.25
2024-05-09T00:37:08.378Z,1.23
2024-05-09T00:39:41.322Z,1.63
2024-05-09T00:42:14.276Z,1.30
2024-05-09T00:44:47.101Z,1.30
2024-05-09T00:47:20.094Z,1.25
2024-05-09T00:52:26.509Z,1.42
2024-05-09T00:57:33.163Z,1.30
2024-05-09T01:00:18.431Z,1.50
2024-05-09T01:02:59.719Z,1.30
2024-05-09T01:08:06.507Z,1.40
2024-05-09T01:10:42.778Z,1.83
2024-05-09T01:13:17.859Z,1.63
2024-05-09T01:15:53.219Z,1.70
2024-05-09T01:18:26.874Z,1.63
2024-05-09T01:20:59.750Z,1.38
2024-05-09T01:23:32.783Z,2.03
2024-05-09T01:26:05.720Z,1.90
2024-05-09T01:28:38.520Z,2.50
2024-05-09T01:31:16.277Z,1.92
2024-05-09T01:33:49.238Z,1.95
2024-05-09T01:36:22.183Z,2.03
2024-05-09T01:38:55.118Z,2.35
2024-05-09T01:41:28.148Z,2.10
2024-05-09T01:44:01.136Z,2.25
2024-05-09T01:46:33.950Z,2.40
2024-05-09T01:49:07.011Z,2.42
2024-05-09T01:51:40.046Z,2.55
2024-05-09T01:54:12.884Z,2.10
2024-05-09T01:56:45.793Z,1.80
2024-05-09T01:59:18.836Z,2.42
2024-05-09T02:04:31.131Z,1.88
2024-05-09T02:07:05.478Z,1.65
2024-05-09T02:09:38.373Z,1.77
2024-05-09T02:12:11.455Z,1.75
2024-05-09T02:17:17.236Z,1.58
2024-05-09T02:19:50.204Z,1.55
2024-05-09T02:22:23.207Z,1.52
2024-05-09T02:24:56.001Z,1.67
2024-05-09T02:27:28.854Z,1.77
2024-05-09T02:30:01.955Z,1.65
2024-05-09T02:32:35.052Z,1.80
2024-05-09T02:35:08.004Z,1.83
2024-05-09T02:37:40.911Z,1.50
2024-05-09T02:40:15.104Z,1.98
2024-05-09T02:42:54.182Z,1.80
2024-05-09T02:45:26.920Z,1.63
2024-05-09T02:48:00.039Z,1.67
2024-05-09T02:50:38.316Z,1.90
2024-05-09T02:53:14.178Z,1.70
2024-05-09T02:55:47.482Z,2.47
2024-05-09T02:58:20.408Z,1.67
2024-05-09T03:00:53.272Z,1.60
2024-05-09T03:03:26.522Z,1.83
2024-05-09T03:05:59.587Z,1.80
2024-05-09T03:08:32.527Z,1.63
2024-05-09T03:11:05.775Z,1.50
2024-05-09T03:16:13.811Z,1.50
2024-05-09T03:21:19.900Z,1.70
2024-05-09T03:23:52.836Z,2.20
2024-05-09T03:26:25.768Z,1.67
2024-05-09T03:28:58.669Z,2.13
2024-05-09T03:31:31.511Z,1.80
2024-05-09T03:34:04.756Z,2.60
2024-05-09T03:36:42.260Z,1.65
2024-05-09T03:39:15.065Z,2.08
2024-05-09T03:41:47.878Z,1.85
2024-05-09T03:44:20.870Z,1.88
2024-05-09T03:46:53.897Z,1.90
2024-05-09T03:49:26.962Z,1.88
2024-05-09T03:52:05.139Z,1.90
2024-05-09T03:54:47.779Z,1.88
2024-05-09T03:57:20.680Z,2.10
2024-05-09T03:59:53.428Z,2.20
2024-05-09T04:02:26.360Z,2.03
2024-05-09T04:04:59.272Z,2.13
2024-05-09T04:07:33.626Z,2.08
2024-05-09T04:10:08.997Z,2.15
2024-05-09T04:12:43.969Z,1.92
2024-05-09T04:15:16.833Z,1.80
2024-05-09T04:17:51.993Z,2.08
2024-05-09T04:20:35.826Z,2.08
2024-05-09T04:23:13.859Z,1.65
2024-05-09T04:25:47.712Z,1.75
2024-05-09T04:28:20.645Z,2.40
2024-05-09T04:30:53.536Z,1.88
2024-05-09T04:33:27.624Z,2.40
2024-05-09T04:36:00.655Z,2.53
2024-05-09T04:38:33.894Z,2.22
2024-05-09T04:43:39.550Z,2.45
2024-05-09T04:46:12.357Z,2.35
2024-05-09T04:48:45.490Z,2.70
2024-05-09T04:51:18.572Z,2.90
2024-05-09T04:53:51.450Z,3.00
2024-05-09T04:56:24.441Z,2.90
2024-05-09T04:58:57.335Z,2.55
2024-05-09T05:01:30.252Z,2.70
2024-05-09T05:04:03.240Z,3.13
2024-05-09T05:06:36.192Z,3.05
2024-05-09T05:09:09.102Z,2.47
2024-05-09T05:11:42.164Z,2.95
